createdAt,value
2022-12-27T00:00:14.482Z,40.05
2022-12-27T00:03:16.771Z,38.00
2022-12-27T00:06:21.624Z,38.65
2022-12-27T00:09:23.861Z,39.03
2022-12-27T00:12:26.404Z,39.25
2022-12-27T00:15:28.909Z,36.20
2022-12-27T00:18:31.564Z,36.67
2022-12-27T00:21:33.754Z,36.25
2022-12-27T00:24:36.303Z,34.60
2022-12-27T00:27:38.659Z,35.53
2022-12-27T00:30:41.177Z,33.05
2022-12-27T00:33:46.008Z,33.58
2022-12-27T00:36:48.557Z,32.75
2022-12-27T00:39:50.730Z,32.05
2022-12-27T00:42:53.167Z,32.30
2022-12-27T00:45:55.541Z,33.25
2022-12-27T00:48:58.642Z,31.77
2022-12-27T00:52:00.857Z,32.72
2022-12-27T00:55:04.096Z,31.98
2022-12-27T00:58:06.262Z,31.35
2022-12-27T01:01:11.218Z,31.05
2022-12-27T01:04:17.300Z,30.25
2022-12-27T01:07:20.271Z,30.90
2022-12-27T01:10:22.484Z,30.58
2022-12-27T01:13:25.080Z,30.30
2022-12-27T01:16:29.197Z,29.77
2022-12-27T01:19:32.003Z,28.95
2022-12-27T01:22:34.196Z,28.42
2022-12-27T01:25:36.669Z,29.00
2022-12-27T01:28:38.993Z,28.87
2022-12-27T01:31:41.488Z,29.63
2022-12-27T01:34:43.724Z,29.52
2022-12-27T01:37:46.216Z,29.92
2022-12-27T01:40:48.407Z,29.40
2022-12-27T01:43:51.036Z,27.58
2022-12-27T01:46:53.271Z,27.73
2022-12-27T01:50:16.742Z,23.87
2022-12-27T01:53:29.754Z,14.20
2022-12-27T01:56:32.387Z,3.33
2022-12-27T01:59:35.759Z,1.42
2022-12-27T02:02:39.447Z,0.77
2022-12-27T02:05:42.475Z,0.68
2022-12-27T02:09:07.387Z,0.93
2022-12-27T02:12:10.924Z,1.05
2022-12-27T02:15:13.472Z,0.93
2022-12-27T02:18:16.549Z,0.90
2022-12-27T02:21:36.091Z,1.10
2022-12-27T02:25:01.970Z,1.00
2022-12-27T02:28:24.042Z,1.35
2022-12-27T02:31:38.728Z,1.87
2022-12-27T02:34:46.884Z,1.67
2022-12-27T02:37:55.915Z,2.20
2022-12-27T02:41:21.034Z,2.10
2022-12-27T02:44:42.405Z,2.12
2022-12-27T02:51:50.526Z,2.78
2022-12-27T02:55:12.285Z,3.53
2022-12-27T02:58:33.212Z,4.70
2022-12-27T03:02:11.461Z,5.57
2022-12-27T03:05:42.159Z,5.03
2022-12-27T03:08:53.088Z,5.70
2022-12-27T03:12:14.734Z,5.40
2022-12-27T03:15:52.325Z,5.80
2022-12-27T03:19:40.565Z,5.43
2022-12-27T03:23:05.630Z,5.80
2022-12-27T03:26:10.243Z,5.90
2022-12-27T03:29:36.129Z,5.60
2022-12-27T03:33:09.413Z,5.95
2022-12-27T03:36:45.043Z,5.82
2022-12-27T03:40:03.329Z,6.03
2022-12-27T03:43:13.849Z,6.12
2022-12-27T03:46:35.060Z,5.57
2022-12-27T03:49:56.324Z,5.22
2022-12-27T03:53:11.076Z,4.93
2022-12-27T03:56:13.460Z,4.65
2022-12-27T03:59:15.983Z,5.05
2022-12-27T04:02:18.898Z,4.82
2022-12-27T04:05:21.487Z,4.50
2022-12-27T04:08:42.374Z,4.85
2022-12-27T04:15:24.535Z,5.10
2022-12-27T04:18:45.469Z,4.43
2022-12-27T04:22:06.179Z,4.80
2022-12-27T04:25:27.562Z,4.70
2022-12-27T04:28:49.480Z,5.12
2022-12-27T04:32:10.200Z,4.78
2022-12-27T04:35:12.445Z,5.05
2022-12-27T04:38:14.929Z,5.12
2022-12-27T04:41:35.696Z,4.50
2022-12-27T04:48:17.930Z,5.67
2022-12-27T04:51:38.700Z,5.25
2022-12-27T04:54:59.186Z,5.40
2022-12-27T04:58:01.645Z,5.50
2022-12-27T05:01:24.048Z,5.47
2022-12-27T05:04:26.715Z,5.72
2022-12-27T05:07:47.881Z,5.68
2022-12-27T05:11:09.156Z,5.85
2022-12-27T05:14:15.003Z,6.07
2022-12-27T05:17:17.424Z,6.43
2022-12-27T05:20:19.660Z,6.15
2022-12-27T05:23:40.552Z,6.68
2022-12-27T05:26:42.808Z,6.45
2022-12-27T05:29:46.258Z,6.93
2022-12-27T05:32:49.724Z,7.03
2022-12-27T05:35:52.183Z,6.95
2022-12-27T05:38:57.248Z,6.85
2022-12-27T05:42:01.336Z,7.37
2022-12-27T05:45:03.937Z,8.10
2022-12-27T05:48:06.406Z,6.60
2022-12-27T05:51:17.752Z,7.65
2022-12-27T05:54:20.248Z,7.28
2022-12-27T05:57:22.400Z,6.90
2022-12-27T06:00:24.831Z,6.65
2022-12-27T06:03:28.033Z,6.85
2022-12-27T06:06:30.335Z,6.05
2022-12-27T06:09:32.765Z,6.35
2022-12-27T06:12:35.598Z,5.43
2022-12-27T06:15:38.108Z,5.05
2022-12-27T06:18:41.671Z,5.22
2022-12-27T06:21:44.111Z,5.25
2022-12-27T06:24:46.343Z,5.00
2022-12-27T06:27:48.827Z,5.18
2022-12-27T06:30:51.062Z,5.10
2022-12-27T06:33:53.925Z,4.50
2022-12-27T06:36:56.099Z,5.18
2022-12-27T06:39:58.503Z,4.62
2022-12-27T06:43:00.694Z,4.80
2022-12-27T06:46:06.842Z,5.30
2022-12-27T06:49:10.491Z,4.72
2022-12-27T06:52:13.039Z,5.47
2022-12-27T06:55:15.611Z,4.43
2022-12-27T06:58:18.043Z,4.70
2022-12-27T07:01:24.243Z,4.85
2022-12-27T07:04:26.816Z,4.50
2022-12-27T07:07:28.985Z,4.45
2022-12-27T07:10:31.484Z,4.30
2022-12-27T07:13:36.388Z,3.90
2022-12-27T07:16:38.926Z,3.83
2022-12-27T07:19:41.663Z,4.40
2022-12-27T07:22:44.121Z,3.72
2022-12-27T07:25:46.249Z,2.47
2022-12-27T07:28:49.220Z,2.35
2022-12-27T07:31:51.465Z,1.60
2022-12-27T07:34:53.959Z,1.60
2022-12-27T07:37:56.237Z,1.70
2022-12-27T07:41:00.100Z,1.70
2022-12-27T07:44:03.928Z,1.40
2022-12-27T07:47:06.686Z,1.10
2022-12-27T07:50:09.190Z,1.00
2022-12-27T07:53:11.734Z,1.00
2022-12-27T07:56:21.732Z,1.10
2022-12-27T07:59:27.870Z,1.00
2022-12-27T08:02:30.033Z,1.20
2022-12-27T08:05:32.457Z,1.10
2022-12-27T08:08:43.844Z,1.05
2022-12-27T08:11:47.487Z,1.00
2022-12-27T08:14:49.701Z,0.70
2022-12-27T08:17:52.110Z,0.80
2022-12-27T08:20:54.318Z,0.90
2022-12-27T08:23:56.725Z,1.10
2022-12-27T08:26:58.868Z,1.02
2022-12-27T08:30:01.336Z,0.90
2022-12-27T08:33:04.310Z,0.82
2022-12-27T08:39:32.288Z,0.95
2022-12-27T08:42:34.809Z,0.82
2022-12-27T08:45:39.141Z,0.73
2022-12-27T08:48:41.708Z,0.98
2022-12-27T08:51:44.428Z,0.77
2022-12-27T08:54:46.833Z,0.60
2022-12-27T08:57:49.127Z,0.70
2022-12-27T09:00:51.624Z,0.70
2022-12-27T09:03:53.849Z,0.60
2022-12-27T09:06:56.255Z,0.30
2022-12-27T09:09:58.695Z,0.50
2022-12-27T09:13:01.139Z,0.60
2022-12-27T09:16:12.205Z,0.40
2022-12-27T09:19:14.825Z,0.60
2022-12-27T09:22:17.072Z,0.52
2022-12-27T09:25:19.627Z,1.05
2022-12-27T09:28:21.804Z,0.50
2022-12-27T09:31:25.217Z,0.50
2022-12-27T09:34:27.477Z,0.55
2022-12-27T09:37:31.824Z,0.65
2022-12-27T09:40:34.439Z,0.52
2022-12-27T09:44:01.339Z,0.68
2022-12-27T09:47:19.433Z,0.60
2022-12-27T09:50:33.451Z,0.80
2022-12-27T09:53:51.042Z,0.80
2022-12-27T09:57:18.814Z,0.70
2022-12-27T10:00:34.720Z,0.60
2022-12-27T10:03:38.507Z,0.70
2022-12-27T10:06:49.699Z,0.90
2022-12-27T10:10:16.424Z,1.30
2022-12-27T10:13:32.612Z,1.02
2022-12-27T10:16:53.850Z,1.00
2022-12-27T10:20:20.795Z,1.10
2022-12-27T10:23:28.203Z,0.90
2022-12-27T10:26:30.352Z,0.93
2022-12-27T10:29:33.800Z,0.93
2022-12-27T10:32:35.969Z,1.08
2022-12-27T10:35:38.364Z,1.20
2022-12-27T10:38:40.533Z,0.90
2022-12-27T10:41:57.175Z,1.33
2022-12-27T10:45:26.525Z,1.10
2022-12-27T10:48:41.498Z,0.93
2022-12-27T10:51:55.797Z,1.17
2022-12-27T10:54:58.338Z,1.10
2022-12-27T10:58:21.352Z,1.05
2022-12-27T11:01:28.930Z,0.93
2022-12-27T11:04:31.683Z,1.00
2022-12-27T11:07:34.763Z,1.30
2022-12-27T11:10:37.504Z,1.05
2022-12-27T11:13:40.488Z,1.08
2022-12-27T11:16:43.438Z,1.00
2022-12-27T11:19:47.650Z,1.27
2022-12-27T11:23:01.475Z,0.98
2022-12-27T11:26:06.726Z,1.20
2022-12-27T11:29:18.213Z,1.42
2022-12-27T11:32:23.266Z,1.62
2022-12-27T11:35:25.551Z,1.20
2022-12-27T11:38:30.763Z,1.20
2022-12-27T11:41:54.852Z,1.20
2022-12-27T11:45:18.797Z,1.25
2022-12-27T11:48:33.445Z,1.50
2022-12-27T11:52:00.954Z,1.25
2022-12-27T11:55:13.751Z,1.45
2022-12-27T11:58:37.571Z,1.20
2022-12-27T12:02:07.975Z,1.30
2022-12-27T12:05:54.117Z,1.50
2022-12-27T12:09:41.675Z,1.30
2022-12-27T12:13:05.547Z,1.08
2022-12-27T12:16:26.920Z,1.35
2022-12-27T12:19:51.310Z,1.40
2022-12-27T12:23:22.608Z,1.37
2022-12-27T12:26:33.414Z,1.40
2022-12-27T12:30:04.239Z,1.00
2022-12-27T12:33:47.307Z,1.02
2022-12-27T12:37:05.828Z,1.10
2022-12-27T12:40:44.213Z,1.30
2022-12-27T12:44:14.784Z,1.23
2022-12-27T12:47:23.731Z,1.05
2022-12-27T12:50:53.962Z,1.10
2022-12-27T12:54:17.835Z,1.37
2022-12-27T12:57:41.335Z,0.90
2022-12-27T13:01:05.789Z,1.05
2022-12-27T13:04:30.925Z,1.10
2022-12-27T13:07:45.487Z,1.25
2022-12-27T13:11:05.840Z,1.12
2022-12-27T13:14:50.046Z,1.15
2022-12-27T13:18:29.993Z,1.20
2022-12-27T13:21:52.505Z,1.10
2022-12-27T13:25:06.044Z,1.17
2022-12-27T13:28:14.888Z,1.10
2022-12-27T13:31:33.125Z,1.27
2022-12-27T13:35:07.943Z,1.37
2022-12-27T13:38:12.864Z,1.33
2022-12-27T13:41:30.514Z,1.20
2022-12-27T13:45:09.090Z,1.50
2022-12-27T13:48:30.366Z,1.48
2022-12-27T13:51:44.122Z,1.40
2022-12-27T13:54:55.776Z,1.40
2022-12-27T13:58:09.813Z,1.45
2022-12-27T14:01:30.788Z,1.25
2022-12-27T14:04:36.296Z,1.20
2022-12-27T14:08:09.544Z,1.50
2022-12-27T14:11:34.574Z,1.15
2022-12-27T14:14:39.515Z,1.70
2022-12-27T14:17:53.367Z,1.55
2022-12-27T14:21:11.517Z,1.50
2022-12-27T14:24:48.090Z,1.42
2022-12-27T14:28:15.087Z,1.40
2022-12-27T14:31:41.281Z,1.98
2022-12-27T14:35:31.660Z,2.22
2022-12-27T14:38:48.929Z,2.25
2022-12-27T14:42:04.373Z,1.90
2022-12-27T14:45:32.443Z,1.83
2022-12-27T14:49:02.371Z,1.83
2022-12-27T14:52:16.876Z,1.67
2022-12-27T14:55:52.435Z,1.40
2022-12-27T14:59:02.876Z,1.50
2022-12-27T15:02:35.525Z,1.70
2022-12-27T15:05:46.542Z,1.60
2022-12-27T15:09:19.945Z,1.52
2022-12-27T15:12:41.614Z,1.70
2022-12-27T15:16:14.966Z,1.67
2022-12-27T15:19:52.753Z,1.48
2022-12-27T15:23:23.908Z,1.30
2022-12-27T15:26:40.052Z,1.70
2022-12-27T15:29:51.035Z,1.65
2022-12-27T15:33:09.494Z,2.00
2022-12-27T15:36:17.674Z,1.73
2022-12-27T15:39:32.467Z,1.60
2022-12-27T15:42:54.588Z,1.67
2022-12-27T15:45:59.987Z,1.75
2022-12-27T15:49:11.578Z,1.75
2022-12-27T15:52:32.403Z,1.80
2022-12-27T15:55:45.257Z,1.95
2022-12-27T15:59:26.334Z,2.00
2022-12-27T16:02:28.784Z,2.10
2022-12-27T16:05:43.351Z,1.75
2022-12-27T16:08:45.792Z,2.30
2022-12-27T16:12:05.887Z,2.40
2022-12-27T16:15:48.358Z,2.35
2022-12-27T16:19:12.829Z,2.17
2022-12-27T16:22:34.175Z,3.30
2022-12-27T16:25:41.446Z,2.72
2022-12-27T16:28:55.418Z,2.67
2022-12-27T16:32:20.837Z,2.03
2022-12-27T16:35:23.155Z,2.30
2022-12-27T16:38:25.796Z,2.50
2022-12-27T16:41:27.826Z,2.28
2022-12-27T16:45:02.959Z,1.90
2022-12-27T16:48:22.498Z,1.25
2022-12-27T16:51:43.973Z,1.25
2022-12-27T16:58:16.319Z,1.52
2022-12-27T17:01:18.434Z,1.62
2022-12-27T17:04:53.668Z,2.05
2022-12-27T17:07:56.063Z,2.40
2022-12-27T17:11:04.618Z,2.17
2022-12-27T17:14:25.862Z,2.20
2022-12-27T17:17:29.375Z,2.10
2022-12-27T17:20:31.944Z,2.92
2022-12-27T17:23:40.230Z,2.47
2022-12-27T17:27:30.449Z,2.00
2022-12-27T17:30:56.365Z,2.60
2022-12-27T17:34:11.211Z,2.50
2022-12-27T17:37:26.541Z,2.40
2022-12-27T17:40:56.758Z,2.08
2022-12-27T17:44:38.970Z,1.65
2022-12-27T17:47:49.911Z,1.95
2022-12-27T17:50:56.428Z,1.75
2022-12-27T17:54:16.897Z,1.90
2022-12-27T17:57:39.081Z,1.85
2022-12-27T18:00:54.971Z,1.60
2022-12-27T18:03:57.549Z,1.90
2022-12-27T18:07:02.942Z,2.78
2022-12-27T18:10:16.750Z,3.00
2022-12-27T18:13:22.916Z,2.72
2022-12-27T18:16:37.492Z,3.55
2022-12-27T18:19:39.717Z,3.90
2022-12-27T18:22:42.179Z,3.62
2022-12-27T18:25:44.343Z,3.95
2022-12-27T18:28:48.067Z,3.10
2022-12-27T18:31:54.877Z,3.65
2022-12-27T18:35:01.504Z,2.53
2022-12-27T18:38:09.883Z,3.00
2022-12-27T18:41:25.766Z,3.12
2022-12-27T18:44:34.710Z,2.60
2022-12-27T18:47:47.071Z,3.78
2022-12-27T18:50:52.710Z,3.37
2022-12-27T18:53:55.316Z,3.90
2022-12-27T18:56:59.907Z,3.55
2022-12-27T19:00:12.541Z,3.22
2022-12-27T19:03:17.980Z,3.20
2022-12-27T19:06:20.584Z,3.00
2022-12-27T19:09:26.795Z,2.90
2022-12-27T19:12:34.660Z,2.90
2022-12-27T19:15:43.066Z,2.90
2022-12-27T19:18:51.023Z,2.85
2022-12-27T19:21:53.963Z,2.85
2022-12-27T19:25:01.009Z,3.10
2022-12-27T19:28:12.235Z,3.62
2022-12-27T19:31:21.918Z,4.25
2022-12-27T19:34:28.872Z,4.90
2022-12-27T19:37:33.476Z,4.82
2022-12-27T19:40:35.736Z,6.32
2022-12-27T19:43:44.753Z,6.87
2022-12-27T19:46:46.959Z,7.72
2022-12-27T19:49:49.708Z,7.95
2022-12-27T19:52:52.569Z,8.65
2022-12-27T19:55:55.114Z,7.80
2022-12-27T19:58:57.277Z,7.68
2022-12-27T20:01:59.943Z,8.88
2022-12-27T20:05:02.569Z,8.48
2022-12-27T20:08:06.318Z,7.40
2022-12-27T20:11:14.711Z,6.62
2022-12-27T20:14:17.975Z,7.03
2022-12-27T20:17:20.487Z,6.60
2022-12-27T20:20:22.706Z,7.03
2022-12-27T20:23:25.585Z,6.43
2022-12-27T20:26:27.764Z,6.53
2022-12-27T20:29:30.672Z,7.10
2022-12-27T20:32:32.893Z,6.35
2022-12-27T20:35:35.502Z,8.75
2022-12-27T20:38:39.277Z,9.80
2022-12-27T20:41:41.714Z,10.70
2022-12-27T20:44:43.841Z,9.77
2022-12-27T20:47:46.335Z,10.02
2022-12-27T20:50:48.570Z,10.13
2022-12-27T20:53:56.593Z,8.93
2022-12-27T20:56:59.016Z,7.25
2022-12-27T21:00:02.383Z,7.15
2022-12-27T21:03:04.651Z,6.53
2022-12-27T21:06:08.681Z,6.85
2022-12-27T21:09:10.860Z,7.85
2022-12-27T21:12:13.305Z,6.80
2022-12-27T21:15:15.972Z,6.90
2022-12-27T21:18:18.536Z,6.25
2022-12-27T21:21:27.631Z,5.35
2022-12-27T21:24:31.048Z,4.33
2022-12-27T21:27:33.212Z,4.60
2022-12-27T21:30:35.732Z,5.68
2022-12-27T21:33:38.196Z,5.93
2022-12-27T21:36:40.655Z,5.45
2022-12-27T21:39:42.857Z,4.80
2022-12-27T21:42:45.291Z,4.10
2022-12-27T21:45:47.653Z,3.90
2022-12-27T21:48:55.042Z,4.37
2022-12-27T21:51:57.213Z,6.25
2022-12-27T21:54:59.629Z,7.55
2022-12-27T21:58:01.957Z,6.12
2022-12-27T22:01:11.410Z,5.57
2022-12-27T22:04:14.032Z,5.28
2022-12-27T22:07:16.169Z,5.43
2022-12-27T22:10:19.395Z,3.87
2022-12-27T22:13:21.649Z,5.03
2022-12-27T22:16:27.014Z,4.35
2022-12-27T22:19:29.187Z,4.30
2022-12-27T22:22:32.233Z,4.50
2022-12-27T22:25:34.396Z,3.85
2022-12-27T22:28:36.819Z,4.78
2022-12-27T22:31:40.150Z,4.93
2022-12-27T22:34:42.629Z,4.60
2022-12-27T22:37:44.781Z,5.00
2022-12-27T22:40:47.315Z,4.93
2022-12-27T22:43:58.191Z,5.20
2022-12-27T22:50:23.258Z,7.75
2022-12-27T22:53:25.836Z,8.05
2022-12-27T22:56:30.466Z,10.13
2022-12-27T22:59:32.923Z,10.43
2022-12-27T23:02:36.098Z,10.90
2022-12-27T23:05:38.609Z,10.40
2022-12-27T23:08:45.067Z,10.88
2022-12-27T23:11:47.627Z,10.52
2022-12-27T23:14:49.917Z,10.63
2022-12-27T23:17:53.051Z,10.10
2022-12-27T23:21:20.385Z,9.63
2022-12-27T23:24:18.021Z,9.65
2022-12-27T23:27:20.320Z,9.15
2022-12-27T23:30:22.934Z,8.82
2022-12-27T23:33:25.071Z,8.90
2022-12-27T23:36:27.558Z,8.93
2022-12-27T23:39:29.804Z,9.98
2022-12-27T23:42:32.289Z,8.80
2022-12-27T23:45:34.473Z,8.77
2022-12-27T23:48:37.363Z,8.10
2022-12-27T23:51:39.536Z,7.90
2022-12-27T23:54:42.108Z,8.15
2022-12-27T23:57:44.211Z,9.25
